createdAt,value
2018-07-24T00:01:28.249Z,20.00
2018-07-24T00:03:56.305Z,19.90
2018-07-24T00:06:24.790Z,19.80
2018-07-24T00:08:53.762Z,19.70
2018-07-24T00:11:23.076Z,19.70
2018-07-24T00:13:52.696Z,19.70
2018-07-24T00:16:20.630Z,19.60
2018-07-24T00:18:49.240Z,19.50
2018-07-24T00:21:17.160Z,19.60
2018-07-24T00:23:45.088Z,19.50
2018-07-24T00:26:13.625Z,19.40
2018-07-24T00:28:41.628Z,19.30
2018-07-24T00:31:10.242Z,19.20
2018-07-24T00:33:38.838Z,19.20
2018-07-24T00:36:07.988Z,19.10
2018-07-24T00:38:37.471Z,19.00
2018-07-24T00:41:06.354Z,18.90
2018-07-24T00:43:34.941Z,18.90
2018-07-24T00:46:04.408Z,18.90
2018-07-24T00:48:32.988Z,19.00
2018-07-24T00:51:00.968Z,18.90
2018-07-24T00:53:30.357Z,18.80
2018-07-24T00:55:58.955Z,18.80
2018-07-24T00:58:26.969Z,18.80
2018-07-24T01:03:23.224Z,19.10
2018-07-24T01:05:51.382Z,19.00
2018-07-24T01:08:19.626Z,19.00
2018-07-24T01:10:50.129Z,18.90
2018-07-24T01:13:19.590Z,18.80
2018-07-24T01:15:47.678Z,18.80
2018-07-24T01:20:44.236Z,18.70
2018-07-24T01:23:13.369Z,18.70
2018-07-24T01:25:41.887Z,18.70
2018-07-24T01:30:40.020Z,18.50
2018-07-24T01:33:08.495Z,18.40
2018-07-24T01:35:37.746Z,18.40
2018-07-24T01:38:07.092Z,18.50
2018-07-24T01:40:37.531Z,18.50
2018-07-24T01:43:06.079Z,18.40
2018-07-24T01:45:35.950Z,18.50
2018-07-24T01:48:05.333Z,18.50
2018-07-24T01:50:33.922Z,18.50
2018-07-24T01:53:04.112Z,18.40
2018-07-24T01:58:02.714Z,18.10
2018-07-24T02:00:30.708Z,18.10
2018-07-24T02:02:59.351Z,18.10
2018-07-24T02:07:55.412Z,17.90
2018-07-24T02:10:26.103Z,17.90
2018-07-24T02:15:24.648Z,17.90
2018-07-24T02:17:55.675Z,18.00
2018-07-24T02:20:25.328Z,18.10
2018-07-24T02:22:57.755Z,18.00
2018-07-24T02:25:31.033Z,18.00
2018-07-24T02:28:00.293Z,18.00
2018-07-24T02:30:30.175Z,18.10
2018-07-24T02:33:02.189Z,18.00
2018-07-24T02:35:34.912Z,17.90
2018-07-24T02:38:09.720Z,17.90
2018-07-24T02:45:36.946Z,17.70
2018-07-24T02:48:09.890Z,17.70
2018-07-24T02:50:40.033Z,17.70
2018-07-24T02:53:12.758Z,17.70
2018-07-24T02:58:16.571Z,17.70
2018-07-24T03:00:46.613Z,17.80
2018-07-24T03:05:49.079Z,17.70
2018-07-24T03:08:19.499Z,17.50
2018-07-24T03:13:19.166Z,17.60
2018-07-24T03:15:51.069Z,17.60
2018-07-24T03:18:21.547Z,17.70
2018-07-24T03:23:25.305Z,17.80
2018-07-24T03:25:58.972Z,17.70
2018-07-24T03:28:29.791Z,17.60
2018-07-24T03:31:01.548Z,17.60
2018-07-24T03:33:31.797Z,17.40
2018-07-24T03:36:04.282Z,17.40
2018-07-24T03:38:34.604Z,17.40
2018-07-24T03:41:04.051Z,17.40
2018-07-24T03:43:36.500Z,17.40
2018-07-24T03:48:37.132Z,17.40
2018-07-24T03:51:12.451Z,17.50
2018-07-24T03:58:46.548Z,17.60
2018-07-24T04:01:17.137Z,17.60
2018-07-24T04:03:49.401Z,17.70
2018-07-24T04:06:21.135Z,17.70
2018-07-24T04:08:52.702Z,17.80
2018-07-24T04:11:28.502Z,17.70
2018-07-24T04:14:03.503Z,17.60
2018-07-24T04:16:34.575Z,17.60
2018-07-24T04:19:04.304Z,17.80
2018-07-24T04:21:34.036Z,17.80
2018-07-24T04:24:10.915Z,17.80
2018-07-24T04:26:38.860Z,18.00
2018-07-24T04:31:34.599Z,18.20
2018-07-24T04:34:02.567Z,18.10
2018-07-24T04:36:30.557Z,18.20
2018-07-24T04:38:58.444Z,18.20
2018-07-24T04:41:26.768Z,18.30
2018-07-24T04:43:54.705Z,18.40
2018-07-24T04:46:23.269Z,18.60
2018-07-24T04:48:52.108Z,18.70
2018-07-24T04:53:48.557Z,19.00
2018-07-24T04:58:45.303Z,19.00
2018-07-24T05:01:13.341Z,19.10
2018-07-24T05:03:41.269Z,19.10
2018-07-24T05:06:09.849Z,19.30
2018-07-24T05:08:38.615Z,19.40
2018-07-24T05:16:02.674Z,19.80
2018-07-24T05:18:31.357Z,19.80
2018-07-24T05:21:00.568Z,19.90
2018-07-24T05:23:28.508Z,20.10
2018-07-24T05:25:56.548Z,20.30
2018-07-24T05:28:25.222Z,20.30
2018-07-24T05:30:53.214Z,20.40
2018-07-24T05:33:21.192Z,20.60
2018-07-24T05:35:49.736Z,20.60
2018-07-24T05:38:17.696Z,20.80
2018-07-24T05:40:45.870Z,21.20
2018-07-24T05:43:13.789Z,21.50
2018-07-24T05:45:41.710Z,21.80
2018-07-24T05:48:09.612Z,21.90
2018-07-24T05:50:37.549Z,22.10
2018-07-24T05:53:05.456Z,22.30
2018-07-24T05:55:33.374Z,22.40
2018-07-24T05:58:02.104Z,22.70
2018-07-24T06:00:30.059Z,23.10
2018-07-24T06:02:58.314Z,23.10
2018-07-24T06:05:26.930Z,23.30
2018-07-24T06:07:55.383Z,23.60
2018-07-24T06:10:23.329Z,23.90
2018-07-24T06:12:52.625Z,23.90
2018-07-24T06:15:20.570Z,24.10
2018-07-24T06:17:48.462Z,24.40
2018-07-24T06:20:17.006Z,24.60
2018-07-24T06:25:14.292Z,24.40
2018-07-24T06:27:42.803Z,24.50
2018-07-24T06:30:10.738Z,24.60
2018-07-24T06:32:39.688Z,24.60
2018-07-24T06:35:08.381Z,24.70
2018-07-24T06:37:37.625Z,24.70
2018-07-24T06:40:06.196Z,25.00
2018-07-24T06:42:35.376Z,25.20
2018-07-24T06:45:04.337Z,25.20
2018-07-24T06:47:33.521Z,25.40
2018-07-24T06:50:02.606Z,25.20
2018-07-24T06:52:30.554Z,25.30
2018-07-24T06:54:59.818Z,25.30
2018-07-24T06:57:28.321Z,25.40
2018-07-24T06:59:56.235Z,25.40
2018-07-24T07:02:24.445Z,25.50
2018-07-24T07:04:52.992Z,25.50
2018-07-24T07:07:21.564Z,25.70
2018-07-24T07:09:49.582Z,26.00
2018-07-24T07:12:18.037Z,26.30
2018-07-24T07:14:46.243Z,26.50
2018-07-24T07:17:19.705Z,26.30
2018-07-24T07:19:47.616Z,26.60
2018-07-24T07:22:15.648Z,26.50
2018-07-24T07:24:43.578Z,26.40
2018-07-24T07:29:42.674Z,26.20
2018-07-24T07:34:38.297Z,26.30
2018-07-24T07:37:06.187Z,26.40
2018-07-24T07:39:34.092Z,26.40
2018-07-24T07:42:02.024Z,26.60
2018-07-24T07:44:30.795Z,26.90
2018-07-24T07:46:58.725Z,27.10
2018-07-24T07:49:27.142Z,26.90
2018-07-24T07:51:55.077Z,26.80
2018-07-24T07:54:23.004Z,27.00
2018-07-24T07:56:51.927Z,27.10
2018-07-24T07:59:21.318Z,27.20
2018-07-24T08:01:49.871Z,27.10
2018-07-24T08:04:17.925Z,27.30
2018-07-24T08:09:14.693Z,27.40
2018-07-24T08:14:11.037Z,27.40
2018-07-24T08:16:39.637Z,27.50
2018-07-24T08:19:07.569Z,27.50
2018-07-24T08:21:35.686Z,27.60
2018-07-24T08:24:03.762Z,27.60
2018-07-24T08:26:33.299Z,27.50
2018-07-24T08:29:01.213Z,27.50
2018-07-24T08:33:57.364Z,27.40
2018-07-24T08:36:25.368Z,27.20
2018-07-24T08:38:53.327Z,27.10
2018-07-24T08:41:21.259Z,26.90
2018-07-24T08:43:49.280Z,26.50
2018-07-24T08:46:18.971Z,26.40
2018-07-24T08:48:46.892Z,26.20
2018-07-24T08:51:15.463Z,26.30
2018-07-24T08:56:11.932Z,26.40
2018-07-24T09:01:07.859Z,26.50
2018-07-24T09:06:03.635Z,26.30
2018-07-24T09:08:31.573Z,26.30
2018-07-24T09:13:27.892Z,26.70
2018-07-24T09:15:55.804Z,27.10
2018-07-24T09:18:23.714Z,27.10
2018-07-24T09:20:51.690Z,27.10
2018-07-24T09:23:19.627Z,27.30
2018-07-24T09:25:47.569Z,27.50
2018-07-24T09:30:44.134Z,27.60
2018-07-24T09:35:39.828Z,27.40
2018-07-24T09:38:07.782Z,27.60
2018-07-24T09:40:35.821Z,27.60
2018-07-24T09:45:31.605Z,27.80
2018-07-24T09:47:59.605Z,27.80
2018-07-24T09:50:27.905Z,27.90
2018-07-24T09:52:56.387Z,27.70
2018-07-24T09:55:24.980Z,27.70
2018-07-24T09:57:53.660Z,27.80
2018-07-24T10:00:27.068Z,28.00
2018-07-24T10:02:55.590Z,28.00
2018-07-24T10:05:23.781Z,27.80
2018-07-24T10:07:52.068Z,27.70
2018-07-24T10:12:48.150Z,27.50
2018-07-24T10:15:16.074Z,27.50
2018-07-24T10:17:44.539Z,27.60
2018-07-24T10:20:12.505Z,27.40
2018-07-24T10:22:44.881Z,27.40
2018-07-24T10:27:44.352Z,27.90
2018-07-24T10:30:12.215Z,28.20
2018-07-24T10:40:13.002Z,29.10
2018-07-24T10:45:09.850Z,29.10
2018-07-24T10:50:05.797Z,28.20
2018-07-24T10:52:33.695Z,28.20
2018-07-24T10:55:02.378Z,28.30
2018-07-24T10:57:30.970Z,28.40
2018-07-24T10:59:59.452Z,28.60
2018-07-24T11:02:27.713Z,28.80
2018-07-24T11:04:57.276Z,28.90
2018-07-24T11:07:26.196Z,28.90
2018-07-24T11:09:54.099Z,28.80
2018-07-24T11:12:22.531Z,28.90
2018-07-24T11:14:51.296Z,29.00
2018-07-24T11:19:47.566Z,29.10
2018-07-24T11:22:15.576Z,29.10
2018-07-24T11:27:11.217Z,29.40
2018-07-24T11:29:39.094Z,29.20
2018-07-24T11:32:07.945Z,28.80
2018-07-24T11:34:35.917Z,28.40
2018-07-24T11:37:04.308Z,28.10
2018-07-24T11:39:32.315Z,28.00
2018-07-24T11:42:00.624Z,28.20
2018-07-24T11:44:28.580Z,28.40
2018-07-24T11:46:56.521Z,28.60
2018-07-24T11:49:24.434Z,28.80
2018-07-24T11:51:52.436Z,29.00
2018-07-24T11:56:48.744Z,29.40
2018-07-24T12:04:14.875Z,30.00
2018-07-24T12:06:43.813Z,30.00
2018-07-24T12:09:12.567Z,29.60
2018-07-24T12:11:41.122Z,29.10
2018-07-24T12:14:09.056Z,28.70
2018-07-24T12:16:38.035Z,28.50
2018-07-24T12:19:05.979Z,28.30
2018-07-24T12:26:59.369Z,28.80
2018-07-24T18:07:49.479Z,28.20
2018-07-24T18:12:45.228Z,28.10
2018-07-24T18:15:13.142Z,28.00
2018-07-24T18:17:41.103Z,27.90
2018-07-24T18:20:10.260Z,27.70
2018-07-24T18:22:38.198Z,27.70
2018-07-24T18:25:06.202Z,27.70
2018-07-24T18:27:34.276Z,27.50
2018-07-24T18:32:30.701Z,27.30
2018-07-24T18:34:58.617Z,27.00
2018-07-24T18:37:26.510Z,27.00
2018-07-24T18:39:54.861Z,26.90
2018-07-24T18:42:23.753Z,26.80
2018-07-24T18:44:52.438Z,26.60
2018-07-24T18:47:21.640Z,26.50
2018-07-24T18:49:49.618Z,26.40
2018-07-24T18:52:17.605Z,26.20
2018-07-24T18:54:45.468Z,26.00
2018-07-24T18:57:13.439Z,25.80
2018-07-24T18:59:42.341Z,25.60
2018-07-24T19:02:10.846Z,25.50
2018-07-24T19:07:07.009Z,25.20
2018-07-24T19:12:03.920Z,24.90
2018-07-24T19:14:32.724Z,24.90
2018-07-24T19:17:00.597Z,24.60
2018-07-24T19:19:29.543Z,24.40
2018-07-24T19:21:57.522Z,24.20
2018-07-24T19:24:26.092Z,24.00
2018-07-24T19:31:50.417Z,23.50
2018-07-24T19:34:18.723Z,23.30
2018-07-24T19:36:46.641Z,23.20
2018-07-24T19:41:42.295Z,23.20
2018-07-24T19:44:10.594Z,23.10
2018-07-24T19:46:38.485Z,23.00
2018-07-24T19:49:06.899Z,22.80
2018-07-24T19:51:34.788Z,22.70
2018-07-24T19:54:02.971Z,22.70
2018-07-24T19:56:31.543Z,22.60
2018-07-24T19:58:59.953Z,22.50
2018-07-24T20:01:29.526Z,22.40
2018-07-24T20:03:59.240Z,22.40
2018-07-24T20:06:40.154Z,22.40
2018-07-24T20:09:10.113Z,22.20
2018-07-24T20:11:38.123Z,22.10
2018-07-24T20:14:06.333Z,22.10
2018-07-24T20:19:02.185Z,21.70
2018-07-24T20:26:26.006Z,21.50
2018-07-24T20:28:53.936Z,21.50
2018-07-24T20:31:26.763Z,21.50
2018-07-24T20:33:57.813Z,21.60
2018-07-24T20:36:25.842Z,21.50
2018-07-24T20:38:54.476Z,21.40
2018-07-24T20:41:23.075Z,21.20
2018-07-24T20:43:50.981Z,21.10
2018-07-24T20:46:19.238Z,21.00
2018-07-24T20:48:47.152Z,21.00
2018-07-24T20:51:15.125Z,20.90
2018-07-24T20:53:42.973Z,20.80
2018-07-24T20:56:10.890Z,20.70
2018-07-24T20:58:38.859Z,20.70
2018-07-24T21:01:06.746Z,20.60
2018-07-24T21:03:34.708Z,20.60
2018-07-24T21:06:02.642Z,20.40
2018-07-24T21:19:59.068Z,19.80
2018-07-24T21:22:27.130Z,19.80
2018-07-24T21:24:55.039Z,19.90
2018-07-24T21:27:22.994Z,19.90
2018-07-24T21:35:11.983Z,19.90
2018-07-24T21:37:40.809Z,19.90
2018-07-24T21:40:09.353Z,19.90
2018-07-24T21:42:37.923Z,19.70
2018-07-24T21:47:33.568Z,19.50
2018-07-24T21:50:01.473Z,19.50
2018-07-24T21:52:35.224Z,19.50
2018-07-24T21:55:03.213Z,19.50
2018-07-24T21:57:31.081Z,19.40
2018-07-24T21:59:59.016Z,19.30
2018-07-24T22:04:54.726Z,19.20
2018-07-24T22:07:23.028Z,19.20
2018-07-24T22:09:50.942Z,19.20
2018-07-24T22:12:19.005Z,19.20
2018-07-24T22:14:46.905Z,19.20
2018-07-24T22:17:14.784Z,19.30
2018-07-24T22:19:43.383Z,19.10
2018-07-24T22:27:08.863Z,18.90
2018-07-24T22:29:38.112Z,18.80
2018-07-24T22:32:06.069Z,18.80
2018-07-24T22:34:33.931Z,18.80
2018-07-24T22:42:52.355Z,18.70
2018-07-24T22:48:20.962Z,18.50
2018-07-24T22:50:55.114Z,18.50
2018-07-24T22:53:23.243Z,18.50
2018-07-24T22:55:51.801Z,18.50
2018-07-24T22:58:19.800Z,18.60
2018-07-24T23:00:47.767Z,18.70
2018-07-24T23:03:16.272Z,18.60
2018-07-24T23:05:44.524Z,18.60
2018-07-24T23:08:12.943Z,18.70
2018-07-24T23:11:01.221Z,18.70
2018-07-24T23:13:35.955Z,18.70
2018-07-24T23:16:04.737Z,18.60
2018-07-24T23:18:33.232Z,18.50
2018-07-24T23:21:01.209Z,18.50
2018-07-24T23:23:29.182Z,18.40
2018-07-24T23:25:57.131Z,18.40
2018-07-24T23:28:25.073Z,18.40
2018-07-24T23:30:53.965Z,18.40
2018-07-24T23:33:21.890Z,18.40
2018-07-24T23:38:50.386Z,18.30
2018-07-24T23:54:43.346Z,17.90
2018-07-24T23:57:11.821Z,17.80
2018-07-24T23:59:40.530Z,17.80
